»·PEaware :: N710DS 0V7-KASE

N710DS :: 0V7-KASE

FLIGHT INFORMATION

Flight Status: Arrived
Operator: Privately registered:
United States
More flights under this callsign
Pilot: John H. (10732)
Aircraft: Unknown
(B60T)
More flights by this aircraft type
Origin: 0V7 Kayenta
United States
Destination: KASE Aspen-Pitkin Co/Sardy
United States
More flights between these airports :: More routes between these airports
Route: +DVC LOYYD SKIER DBL
File this flight plan on PilotEdge
Remarks:
Altitude:
(Current/Filed)
25,000ft
Speed:
(Current/Filed)
300kts
Departed: 04-Jun-19 05:48 PM
Arrived: 04-Jun-19 06:39 PM
Distance/Time
Traveled:
219nm/0:51
Distance/Time
To Go:
Arrived

Flight Plot

Page will automatically refresh every two minutes.

Flight plan parsing failed; only flown route is shown


Map Options




Map Legend


Flown Route
Filed Route
Departure Airport
Arrival Airport
Navaid (VOR, NDB)
Fix

Horizontal Profiles

Position Reports

Time Latitude Longitude Heading Altitude Ground
Speed
04-Jun-19 17:44 36.709361 -110.241044 141 5713ft 0kts
04-Jun-19 17:45 36.709361 -110.241044 141 5713ft 0kts
04-Jun-19 17:46 36.709820 -110.241015 1 5713ft 10kts
04-Jun-19 17:47 36.711068 -110.241384 58 5713ft 0kts
04-Jun-19 17:48 36.722828 -110.217272 42 7120ft 137kts
04-Jun-19 17:48 36.746675 -110.193259 39 10424ft 127kts
04-Jun-19 17:50 36.780578 -110.154301 41 13943ft 144kts
04-Jun-19 17:51 36.817258 -110.111294 41 15562ft 198kts
04-Jun-19 17:51 36.847475 -110.075983 40 18729ft 170kts
04-Jun-19 17:53 36.890693 -110.025474 41 22801ft 190kts
04-Jun-19 17:53 36.924916 -109.985409 41 24883ft 233kts
04-Jun-19 17:54 36.979986 -109.920736 41 25078ft 294kts
04-Jun-19 17:56 37.051429 -109.836690 41 25086ft 307kts
04-Jun-19 17:56 37.103737 -109.775107 41 25098ft 310kts
04-Jun-19 17:57 37.166589 -109.701021 41 25106ft 311kts
04-Jun-19 17:59 37.240521 -109.613474 41 25108ft 312kts
04-Jun-19 17:59 37.293108 -109.551029 41 25129ft 311kts
04-Jun-19 18:00 37.355738 -109.476495 41 25138ft 310kts
04-Jun-19 18:01 37.418420 -109.401711 41 25143ft 310kts
04-Jun-19 18:02 37.482413 -109.328939 42 25147ft 310kts
04-Jun-19 18:03 37.543752 -109.252590 42 25150ft 310kts
04-Jun-19 18:04 37.606093 -109.176889 42 25174ft 310kts
04-Jun-19 18:05 37.668402 -109.101678 42 25169ft 311kts
04-Jun-19 18:06 37.731065 -109.025974 42 25174ft 311kts
04-Jun-19 18:07 37.793647 -108.950203 42 25198ft 311kts
04-Jun-19 18:08 37.857948 -108.876981 39 25174ft 312kts
04-Jun-19 18:09 37.918240 -108.811003 39 25168ft 313kts
04-Jun-19 18:10 37.984063 -108.738305 39 25159ft 314kts
04-Jun-19 18:11 38.049969 -108.665243 39 25159ft 314kts
04-Jun-19 18:12 38.115700 -108.592174 39 25156ft 315kts
04-Jun-19 18:13 38.181799 -108.518509 39 25135ft 316kts
04-Jun-19 18:14 38.247641 -108.444947 40 25168ft 315kts
04-Jun-19 18:15 38.313569 -108.371098 40 25171ft 315kts
04-Jun-19 18:16 38.379356 -108.297225 40 25152ft 316kts
04-Jun-19 18:17 38.445151 -108.223162 40 25191ft 315kts
04-Jun-19 18:18 38.510922 -108.148926 40 25179ft 316kts
04-Jun-19 18:19 38.574262 -108.070972 46 25165ft 316kts
04-Jun-19 18:20 38.632130 -107.986450 47 25188ft 315kts
04-Jun-19 18:21 38.690496 -107.902349 46 25175ft 316kts
04-Jun-19 18:22 38.749110 -107.818219 46 25168ft 316kts
04-Jun-19 18:23 38.807744 -107.733916 46 25211ft 316kts
04-Jun-19 18:24 38.866344 -107.649461 46 25197ft 317kts
04-Jun-19 18:25 38.924963 -107.564458 46 25167ft 318kts
04-Jun-19 18:26 38.978139 -107.487546 46 23522ft 302kts
04-Jun-19 18:27 39.032553 -107.408319 47 21942ft 293kts
04-Jun-19 18:28 39.086565 -107.329636 48 20341ft 292kts
04-Jun-19 18:29 39.145045 -107.257927 39 18747ft 290kts
04-Jun-19 18:30 39.206782 -107.191210 39 17149ft 287kts
04-Jun-19 18:31 39.262978 -107.129432 39 15540ft 250kts
04-Jun-19 18:32 39.315232 -107.071507 39 15000ft 246kts
04-Jun-19 18:33 39.363730 -107.007617 74 13856ft 238kts
04-Jun-19 18:34 39.345833 -106.944952 140 12792ft 167kts
04-Jun-19 18:35 39.305741 -106.912532 153 10148ft 169kts
04-Jun-19 18:36 39.271904 -106.891953 159 8324ft 129kts
04-Jun-19 18:37 39.239633 -106.876654 158 8036ft 115kts
04-Jun-19 18:38 39.225619 -106.868894 190 7823ft 11kts
04-Jun-19 18:39 39.223569 -106.867853 159 7823ft 11kts
04-Jun-19 18:40 39.222927 -106.866489 88 7823ft 0kts
04-Jun-19 18:41 39.222927 -106.866489 88 7823ft 0kts
04-Jun-19 18:42 39.222927 -106.866489 88 7823ft 0kts

Navigation Log

Ident Type
Flight plan parsing failed, navigation log unavailable